sensor_id;sensor_type;location;lat;lon;timestamp;temperature;humidity
18091;DHT22;9172;49.948;9.208;2022-10-31T00:01:22;14.20;99.90
18091;DHT22;9172;49.948;9.208;2022-10-31T00:03:51;14.20;99.90
18091;DHT22;9172;49.948;9.208;2022-10-31T00:06:20;14.20;99.90
18091;DHT22;9172;49.948;9.208;2022-10-31T00:08:52;14.20;99.90
18091;DHT22;9172;49.948;9.208;2022-10-31T00:11:21;14.20;99.90
18091;DHT22;9172;49.948;9.208;2022-10-31T00:13:51;14.20;99.90
18091;DHT22;9172;49.948;9.208;2022-10-31T00:16:20;14.20;99.90
18091;DHT22;9172;49.948;9.208;2022-10-31T00:18:50;14.20;99.90
18091;DHT22;9172;49.948;9.208;2022-10-31T00:21:19;14.20;99.90
18091;DHT22;9172;49.948;9.208;2022-10-31T00:23:48;14.20;99.90
18091;DHT22;9172;49.948;9.208;2022-10-31T00:26:17;14.20;99.90
18091;DHT22;9172;49.948;9.208;2022-10-31T00:28:46;14.00;99.90
18091;DHT22;9172;49.948;9.208;2022-10-31T00:31:15;14.00;99.90
18091;DHT22;9172;49.948;9.208;2022-10-31T00:33:44;13.80;99.90
18091;DHT22;9172;49.948;9.208;2022-10-31T00:36:15;13.70;99.90
18091;DHT22;9172;49.948;9.208;2022-10-31T00:38:45;13.70;99.90
18091;DHT22;9172;49.948;9.208;2022-10-31T00:41:15;13.60;99.90
18091;DHT22;9172;49.948;9.208;2022-10-31T00:43:44;13.60;99.90
18091;DHT22;9172;49.948;9.208;2022-10-31T00:46:13;13.70;99.90
18091;DHT22;9172;49.948;9.208;2022-10-31T00:48:42;13.70;99.90
18091;DHT22;9172;49.948;9.208;2022-10-31T00:51:11;13.80;99.90
18091;DHT22;9172;49.948;9.208;2022-10-31T00:53:39;13.80;99.90
18091;DHT22;9172;49.948;9.208;2022-10-31T00:56:09;13.90;99.90
18091;DHT22;9172;49.948;9.208;2022-10-31T00:58:38;13.90;99.90
18091;DHT22;9172;49.948;9.208;2022-10-31T01:01:07;13.90;99.90
18091;DHT22;9172;49.948;9.208;2022-10-31T01:03:37;13.90;99.90
18091;DHT22;9172;49.948;9.208;2022-10-31T01:06:09;13.90;99.90
18091;DHT22;9172;49.948;9.208;2022-10-31T01:08:40;13.90;99.90
18091;DHT22;9172;49.948;9.208;2022-10-31T01:11:11;13.80;99.90
18091;DHT22;9172;49.948;9.208;2022-10-31T01:13:40;13.90;99.90
18091;DHT22;9172;49.948;9.208;2022-10-31T01:16:10;13.80;99.90
18091;DHT22;9172;49.948;9.208;2022-10-31T01:18:39;13.80;99.90
18091;DHT22;9172;49.948;9.208;2022-10-31T01:21:10;13.80;99.90
18091;DHT22;9172;49.948;9.208;2022-10-31T01:23:38;13.90;99.90
18091;DHT22;9172;49.948;9.208;2022-10-31T01:26:09;13.80;99.90
18091;DHT22;9172;49.948;9.208;2022-10-31T01:28:43;13.80;99.90
18091;DHT22;9172;49.948;9.208;2022-10-31T01:31:10;13.80;99.90
18091;DHT22;9172;49.948;9.208;2022-10-31T01:33:38;13.70;99.90
18091;DHT22;9172;49.948;9.208;2022-10-31T01:36:16;13.50;99.90
18091;DHT22;9172;49.948;9.208;2022-10-31T01:38:45;13.40;99.90
18091;DHT22;9172;49.948;9.208;2022-10-31T01:41:17;13.40;99.90
18091;DHT22;9172;49.948;9.208;2022-10-31T01:43:49;13.50;99.90
18091;DHT22;9172;49.948;9.208;2022-10-31T01:46:21;13.50;99.90
18091;DHT22;9172;49.948;9.208;2022-10-31T01:48:52;13.50;99.90
18091;DHT22;9172;49.948;9.208;2022-10-31T01:51:24;13.50;99.90
18091;DHT22;9172;49.948;9.208;2022-10-31T01:53:56;13.40;99.90
18091;DHT22;9172;49.948;9.208;2022-10-31T01:56:26;13.40;99.90
18091;DHT22;9172;49.948;9.208;2022-10-31T01:58:55;13.40;99.90
18091;DHT22;9172;49.948;9.208;2022-10-31T02:01:26;13.30;99.90
18091;DHT22;9172;49.948;9.208;2022-10-31T02:03:56;13.30;99.90
18091;DHT22;9172;49.948;9.208;2022-10-31T02:06:30;13.30;99.90
18091;DHT22;9172;49.948;9.208;2022-10-31T02:08:59;13.30;99.90
18091;DHT22;9172;49.948;9.208;2022-10-31T02:11:30;13.40;99.90
18091;DHT22;9172;49.948;9.208;2022-10-31T02:14:01;13.30;99.90
18091;DHT22;9172;49.948;9.208;2022-10-31T02:16:31;13.30;99.90
18091;DHT22;9172;49.948;9.208;2022-10-31T02:19:00;13.30;99.90
18091;DHT22;9172;49.948;9.208;2022-10-31T02:21:33;13.30;99.90
18091;DHT22;9172;49.948;9.208;2022-10-31T02:24:20;13.30;99.90
18091;DHT22;9172;49.948;9.208;2022-10-31T02:27:12;13.30;99.90
18091;DHT22;9172;49.948;9.208;2022-10-31T02:29:54;13.20;99.90
18091;DHT22;9172;49.948;9.208;2022-10-31T02:32:27;13.30;99.90
18091;DHT22;9172;49.948;9.208;2022-10-31T02:35:02;13.20;99.90
18091;DHT22;9172;49.948;9.208;2022-10-31T02:37:34;13.00;99.90
18091;DHT22;9172;49.948;9.208;2022-10-31T02:40:09;12.90;99.90
18091;DHT22;9172;49.948;9.208;2022-10-31T02:42:41;12.90;99.90
18091;DHT22;9172;49.948;9.208;2022-10-31T02:45:14;12.90;99.90
18091;DHT22;9172;49.948;9.208;2022-10-31T02:47:44;13.00;99.90
18091;DHT22;9172;49.948;9.208;2022-10-31T02:50:17;13.00;99.90
18091;DHT22;9172;49.948;9.208;2022-10-31T02:52:50;13.00;99.90
18091;DHT22;9172;49.948;9.208;2022-10-31T02:55:53;13.00;99.90
18091;DHT22;9172;49.948;9.208;2022-10-31T02:58:23;13.10;99.90
18091;DHT22;9172;49.948;9.208;2022-10-31T03:01:06;13.10;99.90
18091;DHT22;9172;49.948;9.208;2022-10-31T03:03:37;13.10;99.90
18091;DHT22;9172;49.948;9.208;2022-10-31T03:06:08;13.10;99.90
18091;DHT22;9172;49.948;9.208;2022-10-31T03:08:41;13.10;99.90
18091;DHT22;9172;49.948;9.208;2022-10-31T03:11:10;13.10;99.90
18091;DHT22;9172;49.948;9.208;2022-10-31T03:13:43;13.10;99.90
18091;DHT22;9172;49.948;9.208;2022-10-31T03:16:14;13.00;99.90
18091;DHT22;9172;49.948;9.208;2022-10-31T03:18:46;13.00;99.90
18091;DHT22;9172;49.948;9.208;2022-10-31T03:21:18;13.10;99.90
18091;DHT22;9172;49.948;9.208;2022-10-31T03:23:48;13.10;99.90
18091;DHT22;9172;49.948;9.208;2022-10-31T03:26:18;13.10;99.90
18091;DHT22;9172;49.948;9.208;2022-10-31T03:28:50;13.10;99.90
18091;DHT22;9172;49.948;9.208;2022-10-31T03:31:22;13.20;99.90
18091;DHT22;9172;49.948;9.208;2022-10-31T03:33:52;13.20;99.90
18091;DHT22;9172;49.948;9.208;2022-10-31T03:36:23;13.20;99.90
18091;DHT22;9172;49.948;9.208;2022-10-31T03:38:53;13.20;99.90
18091;DHT22;9172;49.948;9.208;2022-10-31T03:41:25;13.10;99.90
18091;DHT22;9172;49.948;9.208;2022-10-31T03:43:57;13.20;99.90
18091;DHT22;9172;49.948;9.208;2022-10-31T03:46:26;13.10;99.90
18091;DHT22;9172;49.948;9.208;2022-10-31T03:48:55;13.10;99.90
18091;DHT22;9172;49.948;9.208;2022-10-31T03:51:26;13.20;99.90
18091;DHT22;9172;49.948;9.208;2022-10-31T03:54:00;13.10;99.90
18091;DHT22;9172;49.948;9.208;2022-10-31T03:56:32;12.90;99.90
18091;DHT22;9172;49.948;9.208;2022-10-31T03:59:04;12.80;99.90
18091;DHT22;9172;49.948;9.208;2022-10-31T04:01:36;12.80;99.90
18091;DHT22;9172;49.948;9.208;2022-10-31T04:04:06;12.80;99.90
18091;DHT22;9172;49.948;9.208;2022-10-31T04:06:36;12.90;99.90
18091;DHT22;9172;49.948;9.208;2022-10-31T04:09:08;12.80;99.90
18091;DHT22;9172;49.948;9.208;2022-10-31T04:11:40;12.80;99.90
18091;DHT22;9172;49.948;9.208;2022-10-31T04:14:11;12.80;99.90
18091;DHT22;9172;49.948;9.208;2022-10-31T04:16:41;12.90;99.90
18091;DHT22;9172;49.948;9.208;2022-10-31T04:19:10;12.90;99.90
18091;DHT22;9172;49.948;9.208;2022-10-31T04:21:41;12.90;99.90
18091;DHT22;9172;49.948;9.208;2022-10-31T04:24:10;13.00;99.90
18091;DHT22;9172;49.948;9.208;2022-10-31T04:26:39;13.00;99.90
18091;DHT22;9172;49.948;9.208;2022-10-31T04:29:09;13.00;99.90
18091;DHT22;9172;49.948;9.208;2022-10-31T04:31:37;12.90;99.90
18091;DHT22;9172;49.948;9.208;2022-10-31T04:34:06;12.90;99.90
18091;DHT22;9172;49.948;9.208;2022-10-31T04:36:35;12.90;99.90
18091;DHT22;9172;49.948;9.208;2022-10-31T04:39:04;12.90;99.90
18091;DHT22;9172;49.948;9.208;2022-10-31T04:41:32;13.00;99.90
18091;DHT22;9172;49.948;9.208;2022-10-31T04:44:01;13.00;99.90
18091;DHT22;9172;49.948;9.208;2022-10-31T04:46:30;13.00;99.90
18091;DHT22;9172;49.948;9.208;2022-10-31T04:48:59;13.00;99.90
18091;DHT22;9172;49.948;9.208;2022-10-31T04:51:28;13.00;99.90
18091;DHT22;9172;49.948;9.208;2022-10-31T04:53:56;13.00;99.90
18091;DHT22;9172;49.948;9.208;2022-10-31T04:56:25;13.00;99.90
18091;DHT22;9172;49.948;9.208;2022-10-31T04:58:54;13.00;99.90
18091;DHT22;9172;49.948;9.208;2022-10-31T05:01:23;13.00;99.90
18091;DHT22;9172;49.948;9.208;2022-10-31T05:03:51;13.00;99.90
18091;DHT22;9172;49.948;9.208;2022-10-31T05:06:20;13.00;99.90
18091;DHT22;9172;49.948;9.208;2022-10-31T05:08:48;13.00;99.90
18091;DHT22;9172;49.948;9.208;2022-10-31T05:11:17;13.00;99.90
18091;DHT22;9172;49.948;9.208;2022-10-31T05:13:45;13.00;99.90
18091;DHT22;9172;49.948;9.208;2022-10-31T05:16:15;13.00;99.90
18091;DHT22;9172;49.948;9.208;2022-10-31T05:18:43;13.00;99.90
18091;DHT22;9172;49.948;9.208;2022-10-31T05:21:12;13.00;99.90
18091;DHT22;9172;49.948;9.208;2022-10-31T05:23:41;12.90;99.90
18091;DHT22;9172;49.948;9.208;2022-10-31T05:26:09;12.80;99.90
18091;DHT22;9172;49.948;9.208;2022-10-31T05:28:38;12.70;99.90
18091;DHT22;9172;49.948;9.208;2022-10-31T05:31:08;12.70;99.90
18091;DHT22;9172;49.948;9.208;2022-10-31T05:33:36;12.70;99.90
18091;DHT22;9172;49.948;9.208;2022-10-31T05:36:06;12.60;99.90
18091;DHT22;9172;49.948;9.208;2022-10-31T05:38:34;12.50;99.90
18091;DHT22;9172;49.948;9.208;2022-10-31T05:41:03;12.50;99.90
18091;DHT22;9172;49.948;9.208;2022-10-31T05:43:33;12.50;99.90
18091;DHT22;9172;49.948;9.208;2022-10-31T05:46:02;12.60;99.90
18091;DHT22;9172;49.948;9.208;2022-10-31T05:48:31;12.60;99.90
18091;DHT22;9172;49.948;9.208;2022-10-31T05:51:00;12.60;99.90
18091;DHT22;9172;49.948;9.208;2022-10-31T05:53:29;12.70;99.90
18091;DHT22;9172;49.948;9.208;2022-10-31T05:55:57;12.70;99.90
18091;DHT22;9172;49.948;9.208;2022-10-31T05:58:26;12.70;99.90
18091;DHT22;9172;49.948;9.208;2022-10-31T06:00:55;12.70;99.90
18091;DHT22;9172;49.948;9.208;2022-10-31T06:03:25;12.70;99.90
18091;DHT22;9172;49.948;9.208;2022-10-31T06:05:54;12.70;99.90
18091;DHT22;9172;49.948;9.208;2022-10-31T06:08:23;12.70;99.90
18091;DHT22;9172;49.948;9.208;2022-10-31T06:10:51;12.70;99.90
18091;DHT22;9172;49.948;9.208;2022-10-31T06:13:21;12.70;99.90
18091;DHT22;9172;49.948;9.208;2022-10-31T06:15:49;12.70;99.90
18091;DHT22;9172;49.948;9.208;2022-10-31T06:21:00;12.60;99.90
18091;DHT22;9172;49.948;9.208;2022-10-31T06:23:28;12.50;99.90
18091;DHT22;9172;49.948;9.208;2022-10-31T06:25:58;12.50;99.90
18091;DHT22;9172;49.948;9.208;2022-10-31T06:28:27;12.50;99.90
18091;DHT22;9172;49.948;9.208;2022-10-31T06:30:55;12.50;99.90
18091;DHT22;9172;49.948;9.208;2022-10-31T06:33:24;12.60;99.90
18091;DHT22;9172;49.948;9.208;2022-10-31T06:35:53;12.60;99.90
18091;DHT22;9172;49.948;9.208;2022-10-31T06:38:22;12.60;99.90
18091;DHT22;9172;49.948;9.208;2022-10-31T06:40:50;12.60;99.90
18091;DHT22;9172;49.948;9.208;2022-10-31T06:43:19;12.60;99.90
18091;DHT22;9172;49.948;9.208;2022-10-31T06:45:48;12.60;99.90
18091;DHT22;9172;49.948;9.208;2022-10-31T06:48:16;12.60;99.90
18091;DHT22;9172;49.948;9.208;2022-10-31T06:50:45;12.60;99.90
18091;DHT22;9172;49.948;9.208;2022-10-31T06:53:14;12.60;99.90
18091;DHT22;9172;49.948;9.208;2022-10-31T06:55:43;12.60;99.90
18091;DHT22;9172;49.948;9.208;2022-10-31T06:58:12;12.60;99.90
18091;DHT22;9172;49.948;9.208;2022-10-31T07:00:40;12.60;99.90
18091;DHT22;9172;49.948;9.208;2022-10-31T07:03:12;12.50;99.90
18091;DHT22;9172;49.948;9.208;2022-10-31T07:05:41;12.50;99.90
18091;DHT22;9172;49.948;9.208;2022-10-31T07:08:11;12.50;99.90
18091;DHT22;9172;49.948;9.208;2022-10-31T07:10:41;12.40;99.90
18091;DHT22;9172;49.948;9.208;2022-10-31T07:13:15;12.50;99.90
18091;DHT22;9172;49.948;9.208;2022-10-31T07:15:44;12.50;99.90
18091;DHT22;9172;49.948;9.208;2022-10-31T07:18:13;12.60;99.90
18091;DHT22;9172;49.948;9.208;2022-10-31T07:20:43;12.60;99.90
18091;DHT22;9172;49.948;9.208;2022-10-31T07:23:12;12.60;99.90
18091;DHT22;9172;49.948;9.208;2022-10-31T07:25:43;12.70;99.90
18091;DHT22;9172;49.948;9.208;2022-10-31T07:28:13;12.70;99.90
18091;DHT22;9172;49.948;9.208;2022-10-31T07:30:42;12.70;99.90
18091;DHT22;9172;49.948;9.208;2022-10-31T07:33:10;12.80;99.90
18091;DHT22;9172;49.948;9.208;2022-10-31T07:35:40;12.80;99.90
18091;DHT22;9172;49.948;9.208;2022-10-31T07:38:10;12.90;99.90
18091;DHT22;9172;49.948;9.208;2022-10-31T07:40:39;12.90;99.90
18091;DHT22;9172;49.948;9.208;2022-10-31T07:43:08;13.00;99.90
18091;DHT22;9172;49.948;9.208;2022-10-31T07:45:38;13.00;99.90
18091;DHT22;9172;49.948;9.208;2022-10-31T07:48:07;13.10;99.90
18091;DHT22;9172;49.948;9.208;2022-10-31T07:50:37;13.10;99.90
18091;DHT22;9172;49.948;9.208;2022-10-31T07:53:10;13.20;99.90
18091;DHT22;9172;49.948;9.208;2022-10-31T07:55:38;13.20;99.90
18091;DHT22;9172;49.948;9.208;2022-10-31T07:58:08;13.30;99.90
18091;DHT22;9172;49.948;9.208;2022-10-31T08:00:39;13.30;99.90
18091;DHT22;9172;49.948;9.208;2022-10-31T08:03:09;13.40;99.90
18091;DHT22;9172;49.948;9.208;2022-10-31T08:05:40;13.40;99.90
18091;DHT22;9172;49.948;9.208;2022-10-31T08:08:09;13.50;99.90
18091;DHT22;9172;49.948;9.208;2022-10-31T08:10:38;13.60;99.90
18091;DHT22;9172;49.948;9.208;2022-10-31T08:13:09;13.60;99.90
18091;DHT22;9172;49.948;9.208;2022-10-31T08:15:40;13.70;99.90
18091;DHT22;9172;49.948;9.208;2022-10-31T08:18:12;13.70;99.90
18091;DHT22;9172;49.948;9.208;2022-10-31T08:20:42;13.70;99.90
18091;DHT22;9172;49.948;9.208;2022-10-31T08:23:12;13.80;99.90
18091;DHT22;9172;49.948;9.208;2022-10-31T08:25:41;13.80;99.90
18091;DHT22;9172;49.948;9.208;2022-10-31T08:28:11;14.00;99.90
18091;DHT22;9172;49.948;9.208;2022-10-31T08:30:41;14.00;99.90
18091;DHT22;9172;49.948;9.208;2022-10-31T08:33:11;14.10;99.90
18091;DHT22;9172;49.948;9.208;2022-10-31T08:35:41;14.20;99.90
18091;DHT22;9172;49.948;9.208;2022-10-31T08:38:11;14.30;99.90
18091;DHT22;9172;49.948;9.208;2022-10-31T08:40:40;14.40;99.90
18091;DHT22;9172;49.948;9.208;2022-10-31T08:45:48;14.60;99.90
18091;DHT22;9172;49.948;9.208;2022-10-31T08:48:18;14.70;99.90
18091;DHT22;9172;49.948;9.208;2022-10-31T08:50:47;14.90;99.90
18091;DHT22;9172;49.948;9.208;2022-10-31T08:53:17;15.10;99.90
18091;DHT22;9172;49.948;9.208;2022-10-31T08:55:48;15.30;99.90
18091;DHT22;9172;49.948;9.208;2022-10-31T08:58:18;15.40;99.90
18091;DHT22;9172;49.948;9.208;2022-10-31T09:00:48;15.50;99.90
18091;DHT22;9172;49.948;9.208;2022-10-31T09:03:18;15.70;99.90
18091;DHT22;9172;49.948;9.208;2022-10-31T09:05:48;15.80;99.90
18091;DHT22;9172;49.948;9.208;2022-10-31T09:08:17;15.80;99.90
18091;DHT22;9172;49.948;9.208;2022-10-31T09:10:46;15.90;99.90
18091;DHT22;9172;49.948;9.208;2022-10-31T09:13:17;16.00;99.90
18091;DHT22;9172;49.948;9.208;2022-10-31T09:15:47;16.00;99.90
18091;DHT22;9172;49.948;9.208;2022-10-31T09:18:17;16.10;99.90
18091;DHT22;9172;49.948;9.208;2022-10-31T09:20:48;16.10;99.90
18091;DHT22;9172;49.948;9.208;2022-10-31T09:23:18;16.20;99.90
18091;DHT22;9172;49.948;9.208;2022-10-31T09:25:48;16.30;99.90
18091;DHT22;9172;49.948;9.208;2022-10-31T09:28:19;16.30;99.90
18091;DHT22;9172;49.948;9.208;2022-10-31T09:30:50;16.30;99.90
18091;DHT22;9172;49.948;9.208;2022-10-31T09:33:19;16.30;99.90
18091;DHT22;9172;49.948;9.208;2022-10-31T09:35:48;16.30;99.90
18091;DHT22;9172;49.948;9.208;2022-10-31T09:40:55;16.40;99.90
18091;DHT22;9172;49.948;9.208;2022-10-31T09:43:28;16.40;99.90
18091;DHT22;9172;49.948;9.208;2022-10-31T09:48:54;16.40;99.90
18091;DHT22;9172;49.948;9.208;2022-10-31T09:54:10;16.50;99.90
18091;DHT22;9172;49.948;9.208;2022-10-31T09:59:21;16.40;99.90
18091;DHT22;9172;49.948;9.208;2022-10-31T10:04:40;16.40;99.90
18091;DHT22;9172;49.948;9.208;2022-10-31T10:07:13;16.30;99.90
18091;DHT22;9172;49.948;9.208;2022-10-31T10:09:42;16.30;99.90
18091;DHT22;9172;49.948;9.208;2022-10-31T10:14:58;16.20;99.90
18091;DHT22;9172;49.948;9.208;2022-10-31T10:17:33;16.20;99.90
18091;DHT22;9172;49.948;9.208;2022-10-31T10:23:10;16.30;99.90
18091;DHT22;9172;49.948;9.208;2022-10-31T10:25:40;16.30;99.90
18091;DHT22;9172;49.948;9.208;2022-10-31T10:28:15;16.40;99.90
18091;DHT22;9172;49.948;9.208;2022-10-31T10:30:46;16.40;99.90
18091;DHT22;9172;49.948;9.208;2022-10-31T10:36:00;16.50;99.90
18091;DHT22;9172;49.948;9.208;2022-10-31T10:38:33;16.50;99.90
18091;DHT22;9172;49.948;9.208;2022-10-31T10:41:04;16.60;99.90
18091;DHT22;9172;49.948;9.208;2022-10-31T10:43:35;16.60;99.90
18091;DHT22;9172;49.948;9.208;2022-10-31T10:46:16;16.70;99.90
18091;DHT22;9172;49.948;9.208;2022-10-31T10:49:12;16.70;99.90
18091;DHT22;9172;49.948;9.208;2022-10-31T10:51:45;16.70;99.90
18091;DHT22;9172;49.948;9.208;2022-10-31T10:57:09;16.80;99.90
18091;DHT22;9172;49.948;9.208;2022-10-31T10:59:38;16.80;99.90
18091;DHT22;9172;49.948;9.208;2022-10-31T11:02:15;16.80;99.90
18091;DHT22;9172;49.948;9.208;2022-10-31T11:04:47;16.80;99.90
18091;DHT22;9172;49.948;9.208;2022-10-31T11:07:16;16.80;99.90
18091;DHT22;9172;49.948;9.208;2022-10-31T11:09:44;16.80;99.90
18091;DHT22;9172;49.948;9.208;2022-10-31T11:12:20;16.80;99.90
18091;DHT22;9172;49.948;9.208;2022-10-31T11:14:52;16.80;99.90
18091;DHT22;9172;49.948;9.208;2022-10-31T11:17:27;16.80;99.90
18091;DHT22;9172;49.948;9.208;2022-10-31T11:20:05;16.80;99.90
18091;DHT22;9172;49.948;9.208;2022-10-31T11:22:35;16.80;99.90
18091;DHT22;9172;49.948;9.208;2022-10-31T11:25:23;16.80;99.90
18091;DHT22;9172;49.948;9.208;2022-10-31T11:28:00;16.80;99.90
18091;DHT22;9172;49.948;9.208;2022-10-31T11:30:30;16.80;99.90
18091;DHT22;9172;49.948;9.208;2022-10-31T11:32:59;16.80;99.90
18091;DHT22;9172;49.948;9.208;2022-10-31T11:35:29;16.90;99.90
18091;DHT22;9172;49.948;9.208;2022-10-31T11:37:59;16.90;99.90
18091;DHT22;9172;49.948;9.208;2022-10-31T11:40:29;16.90;99.90
18091;DHT22;9172;49.948;9.208;2022-10-31T11:43:00;17.00;99.90
18091;DHT22;9172;49.948;9.208;2022-10-31T11:45:31;17.00;99.90
18091;DHT22;9172;49.948;9.208;2022-10-31T11:48:02;17.10;99.90
18091;DHT22;9172;49.948;9.208;2022-10-31T11:50:36;17.10;99.90
18091;DHT22;9172;49.948;9.208;2022-10-31T11:53:14;17.20;99.90
18091;DHT22;9172;49.948;9.208;2022-10-31T11:55:46;17.20;99.90
18091;DHT22;9172;49.948;9.208;2022-10-31T11:58:22;17.20;99.90
18091;DHT22;9172;49.948;9.208;2022-10-31T12:00:52;17.30;99.90
18091;DHT22;9172;49.948;9.208;2022-10-31T12:03:48;17.30;99.90
18091;DHT22;9172;49.948;9.208;2022-10-31T12:06:18;17.30;99.90
18091;DHT22;9172;49.948;9.208;2022-10-31T12:08:48;17.30;99.90
18091;DHT22;9172;49.948;9.208;2022-10-31T12:11:34;17.40;99.90
18091;DHT22;9172;49.948;9.208;2022-10-31T12:14:10;17.40;99.90
18091;DHT22;9172;49.948;9.208;2022-10-31T12:16:42;17.40;99.90
18091;DHT22;9172;49.948;9.208;2022-10-31T12:19:14;17.40;99.90
18091;DHT22;9172;49.948;9.208;2022-10-31T12:21:55;17.50;99.90
18091;DHT22;9172;49.948;9.208;2022-10-31T12:24:30;17.50;99.90
18091;DHT22;9172;49.948;9.208;2022-10-31T12:30:02;17.50;99.90
18091;DHT22;9172;49.948;9.208;2022-10-31T12:32:35;17.60;99.90
18091;DHT22;9172;49.948;9.208;2022-10-31T12:35:21;17.60;99.90
18091;DHT22;9172;49.948;9.208;2022-10-31T12:38:03;17.60;99.90
18091;DHT22;9172;49.948;9.208;2022-10-31T12:43:22;17.60;99.90
18091;DHT22;9172;49.948;9.208;2022-10-31T12:49:07;17.60;99.90
18091;DHT22;9172;49.948;9.208;2022-10-31T12:51:42;17.50;99.90
18091;DHT22;9172;49.948;9.208;2022-10-31T12:56:56;17.50;99.90
18091;DHT22;9172;49.948;9.208;2022-10-31T12:59:29;17.50;99.90
18091;DHT22;9172;49.948;9.208;2022-10-31T13:04:42;17.50;99.90
18091;DHT22;9172;49.948;9.208;2022-10-31T13:07:14;17.50;99.90
18091;DHT22;9172;49.948;9.208;2022-10-31T13:12:25;17.50;99.90
18091;DHT22;9172;49.948;9.208;2022-10-31T13:14:56;17.50;99.90
18091;DHT22;9172;49.948;9.208;2022-10-31T13:17:30;17.50;99.90
18091;DHT22;9172;49.948;9.208;2022-10-31T13:20:15;17.60;99.90
18091;DHT22;9172;49.948;9.208;2022-10-31T13:22:46;17.60;99.90
18091;DHT22;9172;49.948;9.208;2022-10-31T13:25:19;17.60;99.90
18091;DHT22;9172;49.948;9.208;2022-10-31T13:27:53;17.50;99.90
18091;DHT22;9172;49.948;9.208;2022-10-31T13:33:11;17.60;99.90
18091;DHT22;9172;49.948;9.208;2022-10-31T13:35:45;17.60;99.90
18091;DHT22;9172;49.948;9.208;2022-10-31T13:38:16;17.60;99.90
18091;DHT22;9172;49.948;9.208;2022-10-31T13:40:50;17.60;99.90
18091;DHT22;9172;49.948;9.208;2022-10-31T13:43:26;17.60;99.90
18091;DHT22;9172;49.948;9.208;2022-10-31T13:45:55;17.60;99.90
18091;DHT22;9172;49.948;9.208;2022-10-31T13:48:38;17.70;99.90
18091;DHT22;9172;49.948;9.208;2022-10-31T13:51:10;17.70;99.90
18091;DHT22;9172;49.948;9.208;2022-10-31T13:53:56;17.70;99.90
18091;DHT22;9172;49.948;9.208;2022-10-31T13:56:21;17.70;99.90
18091;DHT22;9172;49.948;9.208;2022-10-31T13:59:17;17.70;99.90
18091;DHT22;9172;49.948;9.208;2022-10-31T14:01:50;17.70;99.90
18091;DHT22;9172;49.948;9.208;2022-10-31T14:04:22;17.70;99.90
18091;DHT22;9172;49.948;9.208;2022-10-31T14:06:58;17.60;99.90
18091;DHT22;9172;49.948;9.208;2022-10-31T14:09:31;17.60;99.90
18091;DHT22;9172;49.948;9.208;2022-10-31T14:12:03;17.60;99.90
18091;DHT22;9172;49.948;9.208;2022-10-31T14:14:40;17.70;99.90
18091;DHT22;9172;49.948;9.208;2022-10-31T14:17:13;17.70;99.90
18091;DHT22;9172;49.948;9.208;2022-10-31T14:19:42;17.70;99.90
18091;DHT22;9172;49.948;9.208;2022-10-31T14:22:20;17.70;99.90
18091;DHT22;9172;49.948;9.208;2022-10-31T14:24:50;17.70;99.90
18091;DHT22;9172;49.948;9.208;2022-10-31T14:27:44;17.70;99.90
18091;DHT22;9172;49.948;9.208;2022-10-31T14:30:19;17.70;99.90
18091;DHT22;9172;49.948;9.208;2022-10-31T14:32:53;17.70;99.90
18091;DHT22;9172;49.948;9.208;2022-10-31T14:35:25;17.60;99.90
18091;DHT22;9172;49.948;9.208;2022-10-31T14:38:11;17.50;99.90
18091;DHT22;9172;49.948;9.208;2022-10-31T14:40:51;17.50;99.90
18091;DHT22;9172;49.948;9.208;2022-10-31T14:43:33;17.40;99.90
18091;DHT22;9172;49.948;9.208;2022-10-31T14:46:03;17.50;99.90
18091;DHT22;9172;49.948;9.208;2022-10-31T14:48:43;17.50;99.90
18091;DHT22;9172;49.948;9.208;2022-10-31T14:51:16;17.50;99.90
18091;DHT22;9172;49.948;9.208;2022-10-31T14:53:47;17.60;99.90
18091;DHT22;9172;49.948;9.208;2022-10-31T14:56:22;17.60;99.90
18091;DHT22;9172;49.948;9.208;2022-10-31T14:58:51;17.60;99.90
18091;DHT22;9172;49.948;9.208;2022-10-31T15:01:24;17.60;99.90
18091;DHT22;9172;49.948;9.208;2022-10-31T15:03:58;17.60;99.90
18091;DHT22;9172;49.948;9.208;2022-10-31T15:06:30;17.70;99.90
18091;DHT22;9172;49.948;9.208;2022-10-31T15:08:59;17.70;99.90
18091;DHT22;9172;49.948;9.208;2022-10-31T15:11:28;17.70;99.90
18091;DHT22;9172;49.948;9.208;2022-10-31T15:14:00;17.70;99.90
18091;DHT22;9172;49.948;9.208;2022-10-31T15:16:31;17.60;99.90
18091;DHT22;9172;49.948;9.208;2022-10-31T15:19:03;17.60;99.90
18091;DHT22;9172;49.948;9.208;2022-10-31T15:21:33;17.60;99.90
18091;DHT22;9172;49.948;9.208;2022-10-31T15:24:03;17.60;99.90
18091;DHT22;9172;49.948;9.208;2022-10-31T15:26:35;17.60;99.90
18091;DHT22;9172;49.948;9.208;2022-10-31T15:29:10;17.50;99.90
18091;DHT22;9172;49.948;9.208;2022-10-31T15:31:36;17.40;99.90
18091;DHT22;9172;49.948;9.208;2022-10-31T15:34:06;17.30;99.90
18091;DHT22;9172;49.948;9.208;2022-10-31T15:36:37;17.30;99.90
18091;DHT22;9172;49.948;9.208;2022-10-31T15:39:09;17.20;99.90
18091;DHT22;9172;49.948;9.208;2022-10-31T15:41:42;17.10;99.90
18091;DHT22;9172;49.948;9.208;2022-10-31T15:44:14;17.10;99.90
18091;DHT22;9172;49.948;9.208;2022-10-31T15:46:43;17.10;99.90
18091;DHT22;9172;49.948;9.208;2022-10-31T15:49:18;17.10;99.90
18091;DHT22;9172;49.948;9.208;2022-10-31T15:51:48;17.00;99.90
18091;DHT22;9172;49.948;9.208;2022-10-31T15:54:16;17.00;99.90
18091;DHT22;9172;49.948;9.208;2022-10-31T15:56:45;17.00;99.90
18091;DHT22;9172;49.948;9.208;2022-10-31T15:59:18;16.90;99.90
18091;DHT22;9172;49.948;9.208;2022-10-31T16:02:00;16.80;99.90
18091;DHT22;9172;49.948;9.208;2022-10-31T16:04:30;16.60;99.90
18091;DHT22;9172;49.948;9.208;2022-10-31T16:07:02;16.50;99.90
18091;DHT22;9172;49.948;9.208;2022-10-31T16:09:30;16.30;99.90
18091;DHT22;9172;49.948;9.208;2022-10-31T16:12:00;16.20;99.90
18091;DHT22;9172;49.948;9.208;2022-10-31T16:14:30;16.20;99.90
18091;DHT22;9172;49.948;9.208;2022-10-31T16:17:00;16.20;99.90
18091;DHT22;9172;49.948;9.208;2022-10-31T16:19:31;16.20;99.90
18091;DHT22;9172;49.948;9.208;2022-10-31T16:22:05;16.30;99.90
18091;DHT22;9172;49.948;9.208;2022-10-31T16:24:39;16.30;99.90
18091;DHT22;9172;49.948;9.208;2022-10-31T16:29:55;16.20;99.90
18091;DHT22;9172;49.948;9.208;2022-10-31T16:32:33;16.20;99.90
18091;DHT22;9172;49.948;9.208;2022-10-31T16:37:59;16.30;99.90
18091;DHT22;9172;49.948;9.208;2022-10-31T16:43:09;16.10;99.90
18091;DHT22;9172;49.948;9.208;2022-10-31T16:45:42;15.90;99.90
18091;DHT22;9172;49.948;9.208;2022-10-31T16:50:49;15.90;99.90
18091;DHT22;9172;49.948;9.208;2022-10-31T16:55:57;16.00;99.90
18091;DHT22;9172;49.948;9.208;2022-10-31T17:01:06;16.00;99.90
18091;DHT22;9172;49.948;9.208;2022-10-31T17:06:13;15.90;99.90
18091;DHT22;9172;49.948;9.208;2022-10-31T17:08:41;15.70;99.90
18091;DHT22;9172;49.948;9.208;2022-10-31T17:13:49;15.70;99.90
18091;DHT22;9172;49.948;9.208;2022-10-31T17:18:55;15.90;99.90
18091;DHT22;9172;49.948;9.208;2022-10-31T17:24:04;16.00;99.90
18091;DHT22;9172;49.948;9.208;2022-10-31T17:29:08;16.10;99.90
18091;DHT22;9172;49.948;9.208;2022-10-31T17:31:38;16.20;99.90